createdAt,value
2023-07-24T00:01:57.546Z,7.00
2023-07-24T00:04:24.911Z,6.63
2023-07-24T00:06:52.169Z,7.00
2023-07-24T00:09:19.448Z,7.15
2023-07-24T00:11:46.749Z,6.85
2023-07-24T00:14:14.189Z,6.40
2023-07-24T00:16:41.485Z,6.27
2023-07-24T00:19:08.826Z,6.63
2023-07-24T00:21:36.114Z,6.90
2023-07-24T00:24:03.530Z,6.53
2023-07-24T00:26:30.977Z,6.95
2023-07-24T00:28:58.579Z,6.73
2023-07-24T00:31:25.997Z,6.82
2023-07-24T00:33:53.326Z,6.90
2023-07-24T00:36:20.574Z,7.15
2023-07-24T00:38:47.866Z,6.45
2023-07-24T00:41:15.705Z,6.87
2023-07-24T00:43:43.017Z,7.10
2023-07-24T00:46:11.152Z,6.97
2023-07-24T00:48:39.288Z,7.40
2023-07-24T00:51:08.674Z,7.25
2023-07-24T00:53:36.039Z,7.50
2023-07-24T00:56:03.382Z,6.95
2023-07-24T00:58:30.780Z,7.05
2023-07-24T01:00:58.517Z,6.90
2023-07-24T01:03:34.451Z,7.07
2023-07-24T01:06:05.090Z,7.37
2023-07-24T01:08:32.463Z,7.38
2023-07-24T01:11:03.571Z,7.25
2023-07-24T01:13:32.569Z,7.38
2023-07-24T01:16:27.968Z,7.28
2023-07-24T01:18:55.619Z,7.43
2023-07-24T01:21:34.014Z,7.18
2023-07-24T01:24:06.093Z,7.15
2023-07-24T01:26:33.417Z,7.47
2023-07-24T01:29:00.640Z,7.45
2023-07-24T01:31:28.402Z,7.63
2023-07-24T01:33:55.787Z,7.10
2023-07-24T01:36:23.173Z,7.03
2023-07-24T01:38:50.561Z,6.82
2023-07-24T01:41:17.930Z,6.68
2023-07-24T01:43:45.293Z,7.40
2023-07-24T01:46:12.714Z,7.75
2023-07-24T01:48:40.040Z,7.70
2023-07-24T01:51:07.545Z,7.47
2023-07-24T01:53:34.736Z,7.88
2023-07-24T01:56:02.077Z,7.43
2023-07-24T01:58:29.440Z,6.95
2023-07-24T02:00:57.372Z,7.45
2023-07-24T02:03:24.724Z,8.18
2023-07-24T02:05:52.781Z,7.78
2023-07-24T02:08:20.092Z,7.83
2023-07-24T02:10:51.047Z,7.95
2023-07-24T02:13:18.958Z,7.78
2023-07-24T02:15:50.369Z,8.60
2023-07-24T02:18:19.085Z,8.50
2023-07-24T02:20:52.963Z,8.07
2023-07-24T02:23:21.609Z,8.10
2023-07-24T02:25:53.300Z,7.80
2023-07-24T02:28:20.652Z,7.93
2023-07-24T02:30:48.623Z,7.85
2023-07-24T02:33:16.120Z,7.53
2023-07-24T02:35:43.362Z,7.88
2023-07-24T02:38:10.748Z,7.72
2023-07-24T02:40:41.790Z,8.10
2023-07-24T02:43:09.263Z,8.10
2023-07-24T02:45:37.844Z,8.10
2023-07-24T02:48:05.856Z,8.13
2023-07-24T02:50:34.022Z,7.70
2023-07-24T02:53:02.277Z,8.15
2023-07-24T02:55:29.488Z,7.75
2023-07-24T02:57:56.786Z,8.67
2023-07-24T03:00:25.237Z,8.30
2023-07-24T03:02:53.772Z,7.68
2023-07-24T03:05:21.132Z,7.85
2023-07-24T03:07:48.420Z,8.52
2023-07-24T03:10:15.645Z,9.17
2023-07-24T03:12:42.998Z,8.20
2023-07-24T03:15:10.686Z,8.48
2023-07-24T03:17:38.078Z,8.43
2023-07-24T03:20:19.044Z,8.48
2023-07-24T03:22:46.469Z,8.73
2023-07-24T03:25:14.284Z,7.78
2023-07-24T03:27:41.809Z,8.55
2023-07-24T03:30:09.251Z,8.57
2023-07-24T03:32:37.772Z,7.97
2023-07-24T03:35:06.354Z,7.57
2023-07-24T03:37:35.293Z,8.10
2023-07-24T03:40:02.714Z,8.57
2023-07-24T03:42:32.150Z,8.48
2023-07-24T03:44:59.556Z,8.18
2023-07-24T03:47:27.629Z,8.27
2023-07-24T03:49:55.141Z,8.05
2023-07-24T03:52:22.477Z,8.50
2023-07-24T03:54:49.723Z,8.45
2023-07-24T03:57:17.042Z,8.50
2023-07-24T03:59:44.293Z,7.63
2023-07-24T04:02:11.752Z,8.05
2023-07-24T04:04:39.166Z,8.25
2023-07-24T04:07:06.600Z,7.78
2023-07-24T04:09:33.986Z,8.60
2023-07-24T04:12:01.725Z,8.57
2023-07-24T04:14:29.087Z,8.32
2023-07-24T04:16:56.933Z,8.18
2023-07-24T04:19:24.366Z,8.05
2023-07-24T04:21:51.732Z,8.05
2023-07-24T04:24:19.022Z,7.83
2023-07-24T04:26:46.525Z,8.23
2023-07-24T04:29:13.771Z,9.02
2023-07-24T04:31:41.096Z,8.18
2023-07-24T04:34:08.381Z,8.27
2023-07-24T04:36:35.699Z,7.60
2023-07-24T04:39:02.955Z,8.57
2023-07-24T04:41:30.379Z,8.18
2023-07-24T04:43:57.626Z,9.02
2023-07-24T04:46:24.960Z,8.85
2023-07-24T04:48:52.316Z,9.13
2023-07-24T04:51:19.905Z,9.32
2023-07-24T04:53:47.131Z,9.18
2023-07-24T04:56:14.427Z,9.32
2023-07-24T04:58:41.656Z,8.27
2023-07-24T05:01:09.082Z,8.60
2023-07-24T05:03:36.308Z,8.85
2023-07-24T05:06:03.841Z,8.73
2023-07-24T05:08:31.135Z,8.30
2023-07-24T05:10:58.672Z,8.55
2023-07-24T05:13:26.792Z,8.57
2023-07-24T05:15:54.256Z,9.43
2023-07-24T05:18:21.598Z,8.38
2023-07-24T05:20:49.749Z,9.38
2023-07-24T05:23:17.185Z,9.15
2023-07-24T05:25:44.585Z,7.97
2023-07-24T05:28:11.947Z,8.25
2023-07-24T05:30:39.255Z,7.47
2023-07-24T05:33:06.732Z,7.32
2023-07-24T05:35:34.172Z,7.65
2023-07-24T05:38:01.486Z,7.80
2023-07-24T05:40:29.415Z,7.97
2023-07-24T05:42:56.712Z,7.75
2023-07-24T05:45:24.100Z,7.28
2023-07-24T05:47:51.408Z,7.82
2023-07-24T05:50:18.816Z,8.30
2023-07-24T05:52:46.101Z,7.30
2023-07-24T05:55:13.497Z,7.10
2023-07-24T05:57:40.751Z,7.22
2023-07-24T06:00:08.644Z,7.63
2023-07-24T06:02:38.753Z,6.80
2023-07-24T06:05:06.401Z,7.43
2023-07-24T06:07:33.683Z,7.00
2023-07-24T06:10:01.072Z,7.50
2023-07-24T06:12:28.311Z,7.40
2023-07-24T06:14:55.609Z,7.47
2023-07-24T06:17:22.844Z,6.82
2023-07-24T06:19:50.164Z,6.97
2023-07-24T06:22:17.487Z,7.50
2023-07-24T06:24:44.863Z,7.13
2023-07-24T06:27:12.193Z,7.23
2023-07-24T06:29:40.263Z,6.85
2023-07-24T06:32:08.093Z,6.75
2023-07-24T06:34:35.727Z,6.90
2023-07-24T06:37:16.851Z,6.32
2023-07-24T06:39:49.403Z,6.93
2023-07-24T06:42:16.637Z,7.18
2023-07-24T06:44:43.918Z,6.53
2023-07-24T06:47:11.218Z,6.70
2023-07-24T06:49:38.525Z,6.63
2023-07-24T06:52:06.030Z,6.20
2023-07-24T06:54:33.427Z,6.75
2023-07-24T06:57:00.724Z,5.70
2023-07-24T06:59:28.149Z,6.80
2023-07-24T07:01:55.421Z,6.50
2023-07-24T07:04:22.841Z,6.33
2023-07-24T07:06:50.366Z,6.45
2023-07-24T07:09:17.766Z,6.60
2023-07-24T07:11:46.062Z,6.07
2023-07-24T07:14:13.996Z,6.55
2023-07-24T07:16:42.106Z,6.57
2023-07-24T07:19:10.689Z,6.68
2023-07-24T07:21:38.174Z,6.50
2023-07-24T07:24:05.878Z,7.38
2023-07-24T07:26:33.338Z,6.32
2023-07-24T07:29:00.870Z,6.63
2023-07-24T07:31:28.196Z,6.97
2023-07-24T07:33:55.632Z,7.25
2023-07-24T07:36:23.997Z,5.85
2023-07-24T07:38:51.383Z,7.47
2023-07-24T07:41:18.693Z,6.43
2023-07-24T07:43:46.074Z,6.90
2023-07-24T07:46:13.332Z,6.82
2023-07-24T07:48:42.144Z,7.18
2023-07-24T07:51:09.417Z,6.70
2023-07-24T07:53:36.982Z,6.83
2023-07-24T07:56:04.390Z,7.30
2023-07-24T07:58:31.800Z,7.13
2023-07-24T08:00:59.235Z,6.88
2023-07-24T08:03:26.559Z,6.85
2023-07-24T08:05:58.186Z,6.80
2023-07-24T08:08:25.625Z,7.05
2023-07-24T08:10:52.878Z,6.65
2023-07-24T08:13:20.200Z,7.47
2023-07-24T08:15:47.563Z,6.88
2023-07-24T08:18:15.218Z,7.37
2023-07-24T08:20:42.537Z,7.50
2023-07-24T08:23:09.905Z,7.03
2023-07-24T08:25:37.167Z,7.07
2023-07-24T08:28:06.663Z,7.00
2023-07-24T08:30:35.193Z,6.80
2023-07-24T08:33:02.627Z,6.93
2023-07-24T08:35:30.260Z,7.18
2023-07-24T08:37:57.933Z,7.88
2023-07-24T08:40:25.237Z,8.10
2023-07-24T08:42:52.486Z,7.60
2023-07-24T08:45:19.852Z,7.22
2023-07-24T08:47:47.187Z,6.80
2023-07-24T08:50:16.522Z,7.35
2023-07-24T08:52:46.110Z,7.63
2023-07-24T08:55:13.573Z,7.17
2023-07-24T08:57:41.011Z,7.40
2023-07-24T09:00:08.820Z,7.82
2023-07-24T09:02:36.239Z,7.05
2023-07-24T09:05:04.797Z,7.75
2023-07-24T09:07:32.653Z,6.63
2023-07-24T09:10:00.294Z,6.60
2023-07-24T09:12:27.770Z,7.38
2023-07-24T09:15:08.230Z,7.50
2023-07-24T09:17:36.311Z,6.47
2023-07-24T09:20:05.177Z,6.97
2023-07-24T09:22:34.421Z,6.07
2023-07-24T09:25:04.598Z,6.30
2023-07-24T09:27:33.134Z,6.53
2023-07-24T09:30:01.527Z,7.47
2023-07-24T09:32:29.269Z,7.00
2023-07-24T09:34:56.631Z,6.90
2023-07-24T09:37:24.682Z,7.55
2023-07-24T09:39:53.889Z,6.97
2023-07-24T09:42:30.438Z,7.13
2023-07-24T09:44:57.885Z,7.20
2023-07-24T09:47:51.872Z,7.57
2023-07-24T09:50:14.385Z,7.07
2023-07-24T09:52:42.974Z,7.03
2023-07-24T09:55:19.632Z,6.70
2023-07-24T09:57:46.969Z,6.73
2023-07-24T10:00:14.536Z,6.57
2023-07-24T10:02:41.965Z,6.70
2023-07-24T10:05:09.296Z,6.43
2023-07-24T10:07:36.689Z,7.22
2023-07-24T10:10:04.023Z,7.00
2023-07-24T10:12:32.543Z,5.50
2023-07-24T10:15:00.025Z,6.70
2023-07-24T10:17:41.292Z,6.30
2023-07-24T10:20:12.577Z,7.18
2023-07-24T10:22:43.264Z,6.43
2023-07-24T10:25:11.240Z,6.20
2023-07-24T10:27:46.026Z,6.75
2023-07-24T10:32:49.064Z,6.13
2023-07-24T10:35:19.065Z,6.40
2023-07-24T10:37:46.388Z,6.72
2023-07-24T10:40:22.745Z,6.88
2023-07-24T10:43:09.162Z,6.60
2023-07-24T10:45:52.847Z,7.38
2023-07-24T10:48:25.497Z,6.50
2023-07-24T10:50:54.632Z,7.75
2023-07-24T10:53:23.426Z,7.57
2023-07-24T10:55:54.612Z,6.47
2023-07-24T10:58:21.968Z,7.10
2023-07-24T11:00:49.235Z,7.87
2023-07-24T11:03:16.671Z,7.28
2023-07-24T11:05:44.783Z,8.40
2023-07-24T11:08:16.145Z,8.20
2023-07-24T11:10:49.969Z,7.25
2023-07-24T11:13:17.903Z,7.40
2023-07-24T11:15:45.608Z,7.45
2023-07-24T11:18:14.252Z,7.45
2023-07-24T11:20:55.386Z,7.63
2023-07-24T11:23:23.351Z,6.72
2023-07-24T11:25:54.474Z,5.97
2023-07-24T11:28:21.838Z,6.90
2023-07-24T11:30:50.264Z,7.05
2023-07-24T11:33:19.564Z,8.00
2023-07-24T11:35:47.337Z,6.45
2023-07-24T11:38:14.671Z,8.60
2023-07-24T11:40:42.953Z,8.52
2023-07-24T11:43:20.919Z,8.20
2023-07-24T11:45:57.758Z,8.23
2023-07-24T11:48:25.629Z,8.18
2023-07-24T11:50:55.869Z,8.10
2023-07-24T11:53:31.322Z,8.60
2023-07-24T11:56:02.605Z,8.05
2023-07-24T11:58:30.586Z,8.48
2023-07-24T12:00:58.013Z,8.80
2023-07-24T12:03:26.593Z,9.20
2023-07-24T12:05:54.094Z,8.20
2023-07-24T12:08:24.850Z,9.15
2023-07-24T12:10:52.407Z,9.07
2023-07-24T12:13:21.860Z,8.95
2023-07-24T12:15:49.930Z,9.80
2023-07-24T12:18:17.195Z,9.55
2023-07-24T12:20:44.536Z,9.73
2023-07-24T12:23:11.823Z,9.02
2023-07-24T12:25:39.204Z,9.30
2023-07-24T12:28:06.570Z,10.13
2023-07-24T12:30:33.898Z,9.18
2023-07-24T12:33:01.184Z,8.95
2023-07-24T12:35:28.601Z,9.57
2023-07-24T12:37:55.893Z,8.65
2023-07-24T12:40:23.316Z,9.50
2023-07-24T12:42:50.649Z,9.43
2023-07-24T12:45:18.036Z,9.32
2023-07-24T12:47:45.350Z,9.82
2023-07-24T12:50:12.930Z,10.15
2023-07-24T12:52:40.410Z,9.50
2023-07-24T12:55:08.649Z,10.00
2023-07-24T12:57:36.084Z,9.32
2023-07-24T13:00:04.153Z,9.93
2023-07-24T13:02:33.006Z,10.85
2023-07-24T13:05:00.362Z,9.63
2023-07-24T13:07:27.686Z,10.32
2023-07-24T13:09:55.126Z,9.52
2023-07-24T13:12:22.589Z,9.60
2023-07-24T13:14:50.061Z,9.10
2023-07-24T13:17:17.406Z,9.97
2023-07-24T13:19:44.735Z,10.82
2023-07-24T13:22:12.055Z,9.88
2023-07-24T13:24:39.536Z,8.98
2023-07-24T13:27:07.246Z,10.38
2023-07-24T13:29:34.556Z,8.90
2023-07-24T13:32:01.812Z,9.93
2023-07-24T13:34:29.291Z,10.60
2023-07-24T13:36:56.553Z,10.13
2023-07-24T13:39:23.882Z,10.52
2023-07-24T13:41:51.117Z,9.57
2023-07-24T13:44:18.634Z,9.38
2023-07-24T13:46:45.853Z,9.00
2023-07-24T13:49:13.365Z,8.45
2023-07-24T13:51:40.644Z,9.52
2023-07-24T13:54:08.037Z,8.43
2023-07-24T13:56:36.936Z,9.13
2023-07-24T13:59:04.530Z,9.20
2023-07-24T14:01:32.205Z,8.95
2023-07-24T14:04:01.759Z,9.35
2023-07-24T14:06:29.162Z,8.53
2023-07-24T14:08:56.439Z,9.55
2023-07-24T14:11:23.695Z,8.68
2023-07-24T14:13:51.033Z,9.32
2023-07-24T14:16:18.936Z,9.60
2023-07-24T14:18:46.333Z,8.57
2023-07-24T14:21:13.598Z,9.43
2023-07-24T14:23:40.905Z,8.15
2023-07-24T14:26:08.445Z,8.70
2023-07-24T14:28:35.742Z,9.32
2023-07-24T14:31:03.014Z,9.73
2023-07-24T14:33:30.324Z,8.68
2023-07-24T14:35:57.594Z,9.02
2023-07-24T14:38:24.976Z,9.13
2023-07-24T14:40:52.221Z,8.95
2023-07-24T14:43:19.640Z,9.10
2023-07-24T14:45:47.163Z,9.18
2023-07-24T14:48:15.745Z,9.90
2023-07-24T14:50:43.145Z,8.73
2023-07-24T14:53:10.521Z,8.52
2023-07-24T14:55:37.756Z,8.70
2023-07-24T14:58:05.169Z,9.02
2023-07-24T15:00:33.442Z,9.00
2023-07-24T15:03:00.869Z,8.30
2023-07-24T15:05:28.153Z,8.27
2023-07-24T15:07:55.455Z,9.10
2023-07-24T15:10:22.840Z,8.52
2023-07-24T15:12:50.306Z,8.98
2023-07-24T15:15:17.571Z,8.80
2023-07-24T15:17:44.896Z,8.40
2023-07-24T15:20:14.165Z,8.60
2023-07-24T15:22:41.657Z,8.57
2023-07-24T15:25:09.131Z,8.13
2023-07-24T15:27:36.612Z,8.30
2023-07-24T15:30:04.366Z,9.18
2023-07-24T15:32:31.784Z,8.13
2023-07-24T15:34:59.045Z,8.00
2023-07-24T15:37:27.055Z,8.18
2023-07-24T15:39:54.322Z,7.93
2023-07-24T15:42:23.578Z,8.13
2023-07-24T15:44:51.303Z,8.27
2023-07-24T15:47:18.721Z,8.55
2023-07-24T15:49:46.198Z,8.82
2023-07-24T15:52:13.607Z,9.10
2023-07-24T15:54:40.866Z,9.85
2023-07-24T15:57:08.229Z,8.80
2023-07-24T15:59:35.503Z,8.82
2023-07-24T16:02:04.010Z,8.73
2023-07-24T16:04:31.381Z,8.55
2023-07-24T16:07:00.222Z,8.93
2023-07-24T16:09:27.494Z,8.20
2023-07-24T16:11:54.899Z,8.52
2023-07-24T16:14:22.139Z,8.32
2023-07-24T16:16:49.434Z,8.25
2023-07-24T16:19:21.096Z,8.77
2023-07-24T16:21:49.916Z,8.30
2023-07-24T16:24:18.567Z,8.13
2023-07-24T16:26:46.125Z,8.23
2023-07-24T16:29:13.414Z,8.27
2023-07-24T16:31:40.844Z,8.35
2023-07-24T16:34:08.195Z,7.90
2023-07-24T16:36:36.400Z,7.93
2023-07-24T16:39:06.260Z,7.97
2023-07-24T16:41:33.925Z,7.18
2023-07-24T16:44:03.054Z,7.53
2023-07-24T16:46:31.170Z,7.77
2023-07-24T16:48:58.639Z,7.00
2023-07-24T16:51:26.004Z,7.38
2023-07-24T16:53:53.374Z,7.30
2023-07-24T16:56:20.726Z,7.45
2023-07-24T16:58:48.098Z,6.77
2023-07-24T17:01:15.545Z,7.93
2023-07-24T17:03:42.884Z,6.93
2023-07-24T17:06:10.263Z,7.18
2023-07-24T17:08:37.588Z,7.20
2023-07-24T17:11:04.959Z,6.83
2023-07-24T17:13:32.148Z,7.22
2023-07-24T17:15:59.495Z,6.95
2023-07-24T17:18:26.751Z,6.78
2023-07-24T17:20:54.078Z,6.75
2023-07-24T17:23:21.338Z,6.93
2023-07-24T17:25:48.636Z,7.47
2023-07-24T17:28:15.906Z,7.13
2023-07-24T17:30:43.270Z,7.10
2023-07-24T17:33:10.546Z,6.60
2023-07-24T17:35:37.933Z,6.83
2023-07-24T17:38:05.184Z,6.30
2023-07-24T17:40:34.686Z,7.47
2023-07-24T17:43:01.938Z,6.90
2023-07-24T17:45:29.285Z,7.28
2023-07-24T17:47:56.616Z,6.60
2023-07-24T17:50:24.517Z,6.88
2023-07-24T17:52:51.883Z,6.32
2023-07-24T17:55:19.212Z,7.60
2023-07-24T17:57:50.563Z,5.82
2023-07-24T18:00:18.755Z,6.60
2023-07-24T18:02:46.166Z,6.90
2023-07-24T18:05:13.751Z,6.45
2023-07-24T18:07:41.082Z,6.57
2023-07-24T18:10:09.016Z,6.68
2023-07-24T18:12:36.809Z,6.77
2023-07-24T18:15:04.543Z,6.07
2023-07-24T18:17:31.800Z,6.45
2023-07-24T18:19:59.236Z,6.15
2023-07-24T18:22:26.551Z,6.30
2023-07-24T18:24:53.956Z,6.33
2023-07-24T18:27:22.118Z,6.05
2023-07-24T18:29:49.515Z,6.10
2023-07-24T18:32:16.807Z,5.80
2023-07-24T18:34:44.154Z,5.80
2023-07-24T18:37:11.556Z,5.70
2023-07-24T18:39:38.963Z,5.68
2023-07-24T18:42:06.838Z,5.57
2023-07-24T18:44:35.647Z,5.53
2023-07-24T18:47:03.013Z,5.93
2023-07-24T18:49:30.520Z,5.13
2023-07-24T18:51:57.834Z,5.60
2023-07-24T18:54:25.200Z,5.38
2023-07-24T18:56:52.446Z,5.00
2023-07-24T18:59:19.840Z,5.75
2023-07-24T19:01:48.064Z,5.20
2023-07-24T19:04:15.435Z,4.88
2023-07-24T19:06:42.754Z,5.07
2023-07-24T19:09:10.161Z,5.30
2023-07-24T19:11:37.738Z,4.90
2023-07-24T19:14:05.112Z,5.37
2023-07-24T19:16:32.487Z,4.13
2023-07-24T19:19:03.661Z,5.40
2023-07-24T19:21:31.967Z,4.43
2023-07-24T19:23:59.454Z,4.40
2023-07-24T19:26:26.803Z,4.53
2023-07-24T19:28:54.559Z,4.55
2023-07-24T19:31:21.893Z,4.68
2023-07-24T19:33:49.132Z,4.18
2023-07-24T19:36:16.538Z,4.57
2023-07-24T19:38:43.837Z,5.00
2023-07-24T19:41:11.275Z,4.43
2023-07-24T19:43:38.623Z,4.40
2023-07-24T19:46:07.672Z,4.28
2023-07-24T19:48:35.358Z,4.38
2023-07-24T19:51:04.168Z,3.87
2023-07-24T19:53:31.490Z,4.53
2023-07-24T19:55:58.956Z,4.45
2023-07-24T19:58:33.933Z,4.95
2023-07-24T20:01:01.621Z,4.93
2023-07-24T20:03:29.391Z,4.90
2023-07-24T20:06:02.052Z,5.03
2023-07-24T20:08:31.347Z,4.82
2023-07-24T20:11:01.175Z,4.50
2023-07-24T20:13:28.859Z,4.28
2023-07-24T20:15:57.716Z,4.23
2023-07-24T20:18:25.153Z,3.95
2023-07-24T20:20:52.503Z,4.22
2023-07-24T20:23:20.047Z,4.10
2023-07-24T20:25:48.310Z,4.32
2023-07-24T20:28:15.653Z,4.43
2023-07-24T20:30:42.992Z,4.25
2023-07-24T20:33:12.265Z,4.13
2023-07-24T20:35:39.699Z,4.25
2023-07-24T20:38:07.003Z,3.78
2023-07-24T20:40:34.317Z,4.30
2023-07-24T20:43:05.476Z,3.65
2023-07-24T20:45:32.866Z,4.03
2023-07-24T20:48:00.485Z,4.25
2023-07-24T20:50:27.877Z,4.30
2023-07-24T20:52:55.100Z,4.10
2023-07-24T20:55:22.461Z,3.38
2023-07-24T20:57:49.781Z,3.53
2023-07-24T21:00:17.154Z,3.88
2023-07-24T21:02:44.439Z,3.30
2023-07-24T21:05:11.838Z,3.40
2023-07-24T21:07:39.999Z,3.03
2023-07-24T21:10:07.722Z,3.33
2023-07-24T21:12:34.981Z,3.13
2023-07-24T21:15:02.314Z,3.08
2023-07-24T21:17:29.570Z,3.40
2023-07-24T21:19:56.937Z,3.50
2023-07-24T21:22:25.111Z,2.97
2023-07-24T21:24:52.544Z,3.30
2023-07-24T21:27:19.823Z,3.20
2023-07-24T21:29:47.212Z,3.23
2023-07-24T21:32:14.466Z,3.10
2023-07-24T21:34:41.757Z,3.38
2023-07-24T21:37:09.079Z,3.35
2023-07-24T21:39:36.333Z,3.10
2023-07-24T21:42:03.829Z,2.87
2023-07-24T21:44:31.195Z,2.88
2023-07-24T21:46:58.473Z,3.13
2023-07-24T21:49:25.828Z,2.83
2023-07-24T21:51:53.124Z,4.18
2023-07-24T21:54:20.440Z,3.20
2023-07-24T21:56:47.792Z,3.72
2023-07-24T21:59:15.549Z,3.33
2023-07-24T22:01:42.827Z,3.22
2023-07-24T22:04:10.198Z,3.13
2023-07-24T22:06:37.494Z,3.20
2023-07-24T22:09:04.786Z,3.20
2023-07-24T22:11:34.234Z,3.13
2023-07-24T22:14:01.648Z,3.55
2023-07-24T22:16:28.936Z,3.92
2023-07-24T22:18:56.302Z,3.40
2023-07-24T22:21:23.599Z,3.33
2023-07-24T22:23:51.047Z,2.90
2023-07-24T22:26:18.353Z,3.00
2023-07-24T22:28:45.733Z,3.05
2023-07-24T22:31:13.056Z,3.10
2023-07-24T22:33:40.448Z,3.20
2023-07-24T22:36:07.758Z,3.33
2023-07-24T22:38:35.116Z,3.10
2023-07-24T22:41:20.611Z,3.50
2023-07-24T22:43:47.968Z,3.40
2023-07-24T22:46:15.349Z,3.20
2023-07-24T22:48:42.887Z,3.13
2023-07-24T22:51:10.495Z,3.72
2023-07-24T22:53:37.807Z,3.63
2023-07-24T22:56:09.263Z,3.43
2023-07-24T22:59:14.904Z,3.20
2023-07-24T23:01:42.268Z,3.28
2023-07-24T23:04:09.522Z,3.83
2023-07-24T23:06:36.854Z,3.55
2023-07-24T23:09:04.194Z,3.27
2023-07-24T23:11:32.661Z,3.15
2023-07-24T23:14:00.095Z,3.15
2023-07-24T23:16:27.550Z,3.22
2023-07-24T23:18:54.882Z,3.50
2023-07-24T23:21:22.186Z,2.57
2023-07-24T23:23:49.518Z,3.00
2023-07-24T23:26:16.922Z,2.80
2023-07-24T23:28:44.361Z,2.67
2023-07-24T23:31:11.789Z,2.58
2023-07-24T23:33:39.830Z,2.90
2023-07-24T23:36:10.160Z,2.60
2023-07-24T23:38:37.707Z,3.15
2023-07-24T23:41:05.945Z,2.80
2023-07-24T23:43:33.567Z,3.33
2023-07-24T23:46:00.943Z,3.20
2023-07-24T23:48:28.338Z,3.35
2023-07-24T23:50:55.592Z,3.53
2023-07-24T23:53:22.990Z,3.22
2023-07-24T23:55:50.251Z,2.97
2023-07-24T23:58:17.509Z,3.10
